地図

経路データ

SID SEASON NUMBER BASIN SUBBASIN NAME ISO_TIME NATURE LAT LON WMO_WIND WMO_PRES WMO_AGENCY TRACK_TYPE DIST2LAND LANDFALL IFLAG USA_AGENCY USA_ATCF_ID USA_LAT USA_LON USA_RECORD USA_STATUS USA_WIND USA_PRES USA_SSHS USA_R34_NE USA_R34_SE USA_R34_SW USA_R34_NW USA_R50_NE USA_R50_SE USA_R50_SW USA_R50_NW USA_R64_NE USA_R64_SE USA_R64_SW USA_R64_NW USA_POCI USA_ROCI USA_RMW USA_EYE TOKYO_LAT TOKYO_LON TOKYO_GRADE TOKYO_WIND TOKYO_PRES TOKYO_R50_DIR TOKYO_R50_LONG TOKYO_R50_SHORT TOKYO_R30_DIR TOKYO_R30_LONG TOKYO_R30_SHORT TOKYO_LAND CMA_LAT CMA_LON CMA_CAT CMA_WIND CMA_PRES HKO_LAT HKO_LON HKO_CAT HKO_WIND HKO_PRES NEWDELHI_LAT NEWDELHI_LON NEWDELHI_GRADE NEWDELHI_WIND NEWDELHI_PRES NEWDELHI_CI NEWDELHI_DP NEWDELHI_POCI REUNION_LAT REUNION_LON REUNION_TYPE REUNION_WIND REUNION_PRES REUNION_TNUM REUNION_CI REUNION_RMW REUNION_R34_NE REUNION_R34_SE REUNION_R34_SW REUNION_R34_NW REUNION_R50_NE REUNION_R50_SE REUNION_R50_SW REUNION_R50_NW REUNION_R64_NE REUNION_R64_SE REUNION_R64_SW REUNION_R64_NW BOM_LAT BOM_LON BOM_TYPE BOM_WIND BOM_PRES BOM_TNUM BOM_CI BOM_RMW BOM_R34_NE BOM_R34_SE BOM_R34_SW BOM_R34_NW BOM_R50_NE BOM_R50_SE BOM_R50_SW BOM_R50_NW BOM_R64_NE BOM_R64_SE BOM_R64_SW BOM_R64_NW BOM_ROCI BOM_POCI BOM_EYE BOM_POS_METHOD BOM_PRES_METHOD NADI_LAT NADI_LON NADI_CAT NADI_WIND NADI_PRES WELLINGTON_LAT WELLINGTON_LON WELLINGTON_WIND WELLINGTON_PRES DS824_LAT DS824_LON DS824_STAGE DS824_WIND DS824_PRES TD9636_LAT TD9636_LON TD9636_STAGE TD9636_WIND TD9636_PRES TD9635_LAT TD9635_LON TD9635_WIND TD9635_PRES TD9635_ROCI NEUMANN_LAT NEUMANN_LON NEUMANN_CLASS NEUMANN_WIND NEUMANN_PRES MLC_LAT MLC_LON MLC_CLASS MLC_WIND MLC_PRES USA_GUST BOM_GUST BOM_GUST_PER REUNION_GUST REUNION_GUST_PER USA_SEAHGT USA_SEARAD_NE USA_SEARAD_SE USA_SEARAD_SW USA_SEARAD_NW STORM_SPEED STORM_DIR
1936287N15147 1936 59 WP MM NOT_NAMED 1936-10-12 21:00:00 NR 14.5000 146.800 main 1859 1859 __________O___ -1 14.5000 146.800 4 9 276
1936287N15147 1936 59 WP MM NOT_NAMED 1936-10-13 00:00:00 NR 14.5422 146.352 main 1859 1859 __________P___ -1 14.5422 146.352 4 9 277
1936287N15147 1936 59 WP MM NOT_NAMED 1936-10-13 03:00:00 NR 14.6073 145.883 main 1872 1872 __________P___ -1 14.6073 145.883 4 10 281
1936287N15147 1936 59 WP MM NOT_NAMED 1936-10-13 06:00:00 NR 14.7188 145.373 main 1886 1886 __________P___ -1 14.7188 145.373 4 11 286
1936287N15147 1936 59 WP MM NOT_NAMED 1936-10-13 09:00:00 NR 14.9000 144.800 main 1914 1914 __________O___ -1 14.9000 144.800 4 13 291
1936287N15147 1936 59 WP MM NOT_NAMED 1936-10-13 12:00:00 NR 15.1618 144.152 main 1955 1955 __________P___ -1 15.1618 144.152 4 14 294
1936287N15147 1936 59 WP MM NOT_NAMED 1936-10-13 15:00:00 NR 15.4658 143.460 main 1978 1907 __________P___ -1 15.4658 143.460 4 15 294
1936287N15147 1936 59 WP MM NOT_NAMED 1936-10-13 18:00:00 NR 15.7618 142.762 main 1909 1840 __________P___ -1 15.7618 142.762 4 14 292
1936287N15147 1936 59 WP MM NOT_NAMED 1936-10-13 21:00:00 NR 16.0000 142.100 main 1840 1779 __________O___ -1 16.0000 142.100 4 12 286
1936287N15147 1936 59 WP MM NOT_NAMED 1936-10-14 00:00:00 NR 16.1058 141.514 main 1779 1727 __________P___ -1 16.1058 141.514 4 11 278
1936287N15147 1936 59 WP MM NOT_NAMED 1936-10-14 03:00:00 NR 16.1516 140.974 main 1729 1677 __________P___ -1 16.1516 140.974 4 10 274
1936287N15147 1936 59 WP MM NOT_NAMED 1936-10-14 06:00:00 NR 16.1717 140.471 main 1677 1626 __________P___ -1 16.1717 140.471 4 9 273
1936287N15147 1936 59 WP MM NOT_NAMED 1936-10-14 09:00:00 NR 16.2000 140.000 main 1626 1587 __________O___ -1 16.2000 140.000 4 9 277
1936287N15147 1936 59 WP MM NOT_NAMED 1936-10-14 12:00:00 NR 16.2762 139.591 main 1587 1549 __________P___ -1 16.2762 139.591 4 8 282
1936287N15147 1936 59 WP MM NOT_NAMED 1936-10-14 15:00:00 NR 16.3681 139.202 main 1549 1511 __________P___ -1 16.3681 139.202 4 8 285
1936287N15147 1936 59 WP MM NOT_NAMED 1936-10-14 18:00:00 NR 16.4760 138.787 main 1511 1464 __________P___ -1 16.4760 138.787 4 9 285
1936287N15147 1936 59 WP MM NOT_NAMED 1936-10-14 21:00:00 NR 16.6000 138.300 main 1464 1407 __________O___ -1 16.6000 138.300 4 11 284
1936287N15147 1936 59 WP MM NOT_NAMED 1936-10-15 00:00:00 NR 16.7410 137.639 main 1396 1335 __________P___ -1 16.7410 137.639 4 14 282
1936287N15147 1936 59 WP MM NOT_NAMED 1936-10-15 03:00:00 NR 16.8944 136.908 main 1335 1270 __________P___ -1 16.8944 136.908 4 14 282
1936287N15147 1936 59 WP MM NOT_NAMED 1936-10-15 06:00:00 NR 17.0504 136.173 main 1275 1212 __________P___ -1 17.0504 136.173 4 14 283
1936287N15147 1936 59 WP MM NOT_NAMED 1936-10-15 09:00:00 NR 17.2000 135.500 main 1212 1170 __________O___ -1 17.2000 135.500 4 12 283
1936287N15147 1936 59 WP MM NOT_NAMED 1936-10-15 12:00:00 NR 17.3270 134.965 main 1170 1129 __________P___ -1 17.3270 134.965 4 10 285
1936287N15147 1936 59 WP MM NOT_NAMED 1936-10-15 15:00:00 NR 17.4487 134.502 main 1129 1104 __________P___ -1 17.4487 134.502 4 9 286
1936287N15147 1936 59 WP MM NOT_NAMED 1936-10-15 18:00:00 NR 17.5710 134.087 main 1104 1074 __________P___ -1 17.5710 134.087 4 8 288
1936287N15147 1936 59 WP MM NOT_NAMED 1936-10-15 21:00:00 NR 17.7000 133.700 main 1074 1046 __________O___ -1 17.7000 133.700 4 8 287
1936287N15147 1936 59 WP MM NOT_NAMED 1936-10-16 00:00:00 NR 17.7933 133.327 main 1046 1022 __________P___ -1 17.7933 133.327 4 7 286
1936287N15147 1936 59 WP MM NOT_NAMED 1936-10-16 03:00:00 NR 17.9014 132.970 main 1022 989 __________P___ -1 17.9014 132.970 4 7 291
1936287N15147 1936 59 WP MM NOT_NAMED 1936-10-16 06:00:00 NR 18.0588 132.604 main 994 967 __________P___ -1 18.0588 132.604 4 8 299
1936287N15147 1936 59 WP MM NOT_NAMED 1936-10-16 09:00:00 NR 18.3000 132.200 main 967 940 __________O___ -1 18.3000 132.200 4 11 305
1936287N15147 1936 59 WP MM NOT_NAMED 1936-10-16 12:00:00 NR 18.6849 131.675 main 946 921 __________P___ -1 18.6849 131.675 4 13 310
1936287N15147 1936 59 WP MM NOT_NAMED 1936-10-16 15:00:00 NR 19.1488 131.115 main 921 882 __________P___ -1 19.1488 131.115 4 14 312
1936287N15147 1936 59 WP MM NOT_NAMED 1936-10-16 18:00:00 NR 19.6381 130.572 main 882 840 __________P___ -1 19.6381 130.572 4 14 315
1936287N15147 1936 59 WP MM NOT_NAMED 1936-10-16 21:00:00 NR 20.1000 130.100 main 840 817 __________O___ -1 20.1000 130.100 4 11 317
1936287N15147 1936 59 WP MM NOT_NAMED 1936-10-17 00:00:00 NR 20.4479 129.757 main 817 796 __________P___ -1 20.4479 129.757 4 9 319
1936287N15147 1936 59 WP MM NOT_NAMED 1936-10-17 03:00:00 NR 20.7640 129.493 main 800 788 __________P___ -1 20.7640 129.493 4 8 325
1936287N15147 1936 59 WP MM NOT_NAMED 1936-10-17 06:00:00 NR 21.0731 129.283 main 792 781 __________P___ -1 21.0731 129.283 4 7 330
1936287N15147 1936 59 WP MM NOT_NAMED 1936-10-17 09:00:00 NR 21.4000 129.100 main 785 776 __________O___ -1 21.4000 129.100 4 8 332
1936287N15147 1936 59 WP MM NOT_NAMED 1936-10-17 12:00:00 NR 21.7743 128.883 main 776 744 __________P___ -1 21.7743 128.883 4 9 334
1936287N15147 1936 59 WP MM NOT_NAMED 1936-10-17 15:00:00 NR 22.1699 128.690 main 739 705 __________P___ -1 22.1700 128.690 4 9 338
1936287N15147 1936 59 WP MM NOT_NAMED 1936-10-17 18:00:00 NR 22.5806 128.527 main 705 682 __________P___ -1 22.5806 128.527 4 9 342
1936287N15147 1936 59 WP MM NOT_NAMED 1936-10-17 21:00:00 NR 23.0000 128.400 main 682 661 __________O___ -1 23.0000 128.400 4 9 343
1936287N15147 1936 59 WP MM NOT_NAMED 1936-10-18 00:00:00 NR 23.4175 128.254 main 661 641 __________P___ -1 23.4175 128.254 4 9 345
1936287N15147 1936 59 WP MM NOT_NAMED 1936-10-18 03:00:00 NR 23.8420 128.152 main 641 622 __________P___ -1 23.8420 128.152 4 9 352
1936287N15147 1936 59 WP MM NOT_NAMED 1936-10-18 06:00:00 NR 24.2705 128.123 main 620 618 __________P___ -1 24.2705 128.123 4 9 2
1936287N15147 1936 59 WP MM NOT_NAMED 1936-10-18 09:00:00 NR 24.7000 128.200 main 626 625 __________O___ -1 24.7000 128.200 4 9 15
1936287N15147 1936 59 WP MM NOT_NAMED 1936-10-18 12:00:00 NR 25.1369 128.380 main 644 644 __________P___ -1 25.1369 128.380 4 10 26
1936287N15147 1936 59 WP MM NOT_NAMED 1936-10-18 15:00:00 NR 25.5719 128.670 main 633 582 __________P___ -1 25.5719 128.670 4 11 35
1936287N15147 1936 59 WP MM NOT_NAMED 1936-10-18 18:00:00 NR 25.9960 129.049 main 582 526 __________P___ -1 25.9960 129.049 4 11 42
1936287N15147 1936 59 WP MM NOT_NAMED 1936-10-18 21:00:00 NR 26.4000 129.500 main 526 487 __________O___ -1 26.4000 129.500 4 10 46
1936287N15147 1936 59 WP MM NOT_NAMED 1936-10-19 00:00:00 NR 26.6893 129.849 main 487 448 __________P___ -1 26.6893 129.849 4 9 51
1936287N15147 1936 59 WP MM NOT_NAMED 1936-10-19 03:00:00 NR 26.9711 130.280 main 448 413 __________P___ -1 26.9711 130.280 4 11 55
1936287N15147 1936 59 WP MM NOT_NAMED 1936-10-19 06:00:00 NR 27.3177 130.869 main 413 367 __________P___ -1 27.3177 130.869 4 15 57
1936287N15147 1936 59 WP MM NOT_NAMED 1936-10-19 09:00:00 NR 27.8000 131.700 main 370 344 __________O___ -1 27.8000 131.700 4 21 57
1936287N15147 1936 59 WP MM NOT_NAMED 1936-10-19 12:00:00 NR 28.4992 132.892 main 350 342 __________P___ -1 28.4992 132.892 4 28 57
1936287N15147 1936 59 WP MM NOT_NAMED 1936-10-19 15:00:00 NR 29.3245 134.336 main 363 356 __________P___ -1 29.3245 134.336 4 31 57
1936287N15147 1936 59 WP MM NOT_NAMED 1936-10-19 18:00:00 NR 30.2112 135.914 main 357 297 __________P___ -1 30.2112 135.914 4 33 57
1936287N15147 1936 59 WP MM NOT_NAMED 1936-10-19 21:00:00 NR 31.1000 137.500 main 302 300 __________O___ -1 31.1000 137.500 4 28 58
1936287N15147 1936 59 WP MM NOT_NAMED 1936-10-20 00:00:00 NR 31.7178 138.716 main 323 272 __________P___ -1 31.7178 138.716 4 24 59
1936287N15147 1936 59 WP MM NOT_NAMED 1936-10-20 03:00:00 NR 32.3637 139.936 main 265 233 __________P___ -1 32.3637 139.936 4 26 57
1936287N15147 1936 59 WP MM NOT_NAMED 1936-10-20 06:00:00 NR 33.1792 141.332 main 229 228 __________P___ -1 33.1792 141.332 4 33 54
1936287N15147 1936 59 WP MM NOT_NAMED 1936-10-20 09:00:00 NR 34.3000 143.100 main 253 253 __________O___ -1 34.3000 143.100 4 43 52
1936287N15147 1936 59 WP MM NOT_NAMED 1936-10-20 12:00:00 NR 35.8100 145.414 main 405 405 __________P___ -1 35.8100 145.414 4 53 52
1936287N15147 1936 59 WP MM NOT_NAMED 1936-10-20 15:00:00 NR 37.6121 148.262 main 577 577 __________P___ -1 37.6121 148.262 4 61 52
1936287N15147 1936 59 WP MM NOT_NAMED 1936-10-20 18:00:00 NR 39.5582 151.562 main 645 626 __________P___ -1 39.5582 151.562 4 66 54
1936287N15147 1936 59 WP MM NOT_NAMED 1936-10-20 21:00:00 NR 41.5000 155.200 main 633 __________O___ -1 41.5000 155.200 4 67 55

デジタル台風データ・検索

IBTrACS Databaseについて

本データベースは、米国NOAAが公開する1842年以降の世界の熱帯低気圧のベストトラックデータアーカイブInternational Best Track Archive for Climate Stewardship (IBTrACS)を、ウェブで閲覧しやすい形式に変換したものです。

最終更新日:2021-12-06